createdAt,value
2023-04-20T00:08:18.647Z,26.40
2023-04-20T00:18:24.488Z,25.40
2023-04-20T00:28:30.486Z,28.70
2023-04-20T00:38:36.598Z,30.60
2023-04-20T00:48:42.742Z,32.00
2023-04-20T00:58:48.888Z,31.90
2023-04-20T01:08:55.243Z,36.20
2023-04-20T01:19:00.903Z,35.60
2023-04-20T01:29:06.564Z,38.10
2023-04-20T01:39:15.004Z,34.30
2023-04-20T01:49:20.719Z,36.30
2023-04-20T01:59:26.421Z,34.20
2023-04-20T02:09:32.427Z,36.30
2023-04-20T02:19:38.119Z,36.60
2023-04-20T02:29:43.730Z,35.00
2023-04-20T02:39:49.524Z,33.60
2023-04-20T02:49:55.507Z,34.00
2023-04-20T03:00:01.634Z,35.70
2023-04-20T03:10:09.862Z,36.50
2023-04-20T03:20:16.550Z,38.10
2023-04-20T03:30:22.283Z,32.10
2023-04-20T03:40:28.642Z,33.10
2023-04-20T03:50:34.500Z,32.40
2023-04-20T04:00:40.312Z,29.90
2023-04-20T04:10:45.985Z,28.80
2023-04-20T04:20:52.014Z,29.00
2023-04-20T04:30:57.861Z,26.10
2023-04-20T04:41:03.969Z,26.90
2023-04-20T04:51:10.028Z,23.70
2023-04-20T05:01:16.299Z,22.80
2023-04-20T05:11:21.967Z,20.80
2023-04-20T05:21:28.730Z,14.60
2023-04-20T05:31:34.498Z,9.20
2023-04-20T05:41:41.006Z,7.50
2023-04-20T05:51:46.856Z,8.20
2023-04-20T06:01:52.576Z,7.90
2023-04-20T06:11:58.561Z,7.40
2023-04-20T06:22:08.997Z,7.30
2023-04-20T06:32:14.976Z,6.00
2023-04-20T06:42:20.895Z,5.40
2023-04-20T06:52:26.703Z,6.10
2023-04-20T07:02:42.821Z,5.30
2023-04-20T07:12:49.052Z,5.40
2023-04-20T07:22:54.936Z,5.60
2023-04-20T07:33:00.803Z,5.90
2023-04-20T07:43:07.432Z,5.80
2023-04-20T07:53:14.338Z,4.20
2023-04-20T08:03:20.810Z,5.00
2023-04-20T08:13:27.809Z,4.40
2023-04-20T08:23:33.511Z,4.50
2023-04-20T08:33:39.401Z,4.40
2023-04-20T08:43:46.898Z,3.50
2023-04-20T08:53:53.056Z,5.20
2023-04-20T09:03:59.928Z,5.30
2023-04-20T09:14:10.073Z,4.20
2023-04-20T09:24:16.753Z,3.60
2023-04-20T09:34:25.805Z,3.90
2023-04-20T09:44:33.499Z,5.60
2023-04-20T09:54:40.349Z,4.40
2023-04-20T10:04:56.734Z,4.80
2023-04-20T10:15:02.330Z,4.20
2023-04-20T10:25:19.515Z,5.30
2023-04-20T10:35:25.456Z,3.90
2023-04-20T10:45:38.513Z,3.80
2023-04-20T10:55:44.591Z,3.50
2023-04-20T11:05:52.934Z,2.60
2023-04-20T11:15:58.932Z,3.70
2023-04-20T11:26:04.806Z,3.30
2023-04-20T11:36:21.520Z,3.20
2023-04-20T11:46:27.285Z,3.90
2023-04-20T11:56:33.222Z,4.30
2023-04-20T12:06:38.912Z,4.00
2023-04-20T12:16:44.672Z,4.20
2023-04-20T12:26:50.392Z,3.60
2023-04-20T12:36:55.992Z,4.60
2023-04-20T12:47:01.843Z,3.80
2023-04-20T12:57:07.925Z,3.70
2023-04-20T13:07:13.642Z,2.90
2023-04-20T13:17:19.705Z,4.10
2023-04-20T13:27:25.621Z,2.90
2023-04-20T13:37:33.188Z,3.50
2023-04-20T13:47:39.853Z,2.40
2023-04-20T13:57:45.894Z,3.10
2023-04-20T14:07:51.612Z,3.40
2023-04-20T14:17:57.308Z,3.30
2023-04-20T14:28:03.310Z,2.90
2023-04-20T14:38:09.438Z,3.10
2023-04-20T14:48:15.504Z,3.60
2023-04-20T14:58:21.949Z,2.30
2023-04-20T15:08:28.052Z,2.50
2023-04-20T15:18:33.851Z,2.70
2023-04-20T15:28:39.647Z,3.10
2023-04-20T15:38:45.405Z,2.70
2023-04-20T15:48:51.122Z,3.30
2023-04-20T15:58:56.862Z,2.60
2023-04-20T16:09:02.533Z,3.10
2023-04-20T16:19:08.227Z,3.20
2023-04-20T16:29:13.880Z,2.70
2023-04-20T16:39:19.568Z,3.20
2023-04-20T16:49:26.102Z,2.20
2023-04-20T16:59:31.921Z,2.50
2023-04-20T17:09:37.658Z,2.50
2023-04-20T17:19:43.406Z,3.90
2023-04-20T17:29:49.221Z,3.90
2023-04-20T17:39:55.033Z,5.70
2023-04-20T17:50:00.955Z,4.10
2023-04-20T18:00:08.768Z,8.70
2023-04-20T18:10:15.772Z,9.20
2023-04-20T18:20:21.594Z,4.60
2023-04-20T18:30:27.608Z,4.10
2023-04-20T18:40:33.923Z,3.40
2023-04-20T18:50:39.775Z,4.80
2023-04-20T19:00:45.569Z,4.40
2023-04-20T19:10:56.342Z,5.10
2023-04-20T19:21:01.929Z,7.00
2023-04-20T19:31:09.540Z,6.70
2023-04-20T19:41:15.835Z,6.60
2023-04-20T19:51:22.424Z,9.20
2023-04-20T20:01:28.390Z,10.30
2023-04-20T20:11:34.343Z,12.10
2023-04-20T20:21:40.021Z,8.20
2023-04-20T20:31:46.941Z,9.90
2023-04-20T20:41:53.319Z,8.40
2023-04-20T20:51:59.099Z,5.60
2023-04-20T21:02:04.837Z,6.70
2023-04-20T21:12:10.806Z,6.30
2023-04-20T21:22:17.432Z,6.60
2023-04-20T21:32:24.130Z,6.00
2023-04-20T21:42:30.061Z,6.00
2023-04-20T21:52:35.761Z,6.20
2023-04-20T22:02:41.715Z,6.70
2023-04-20T22:12:47.783Z,6.60
2023-04-20T22:22:54.097Z,6.00
2023-04-20T22:33:00.074Z,8.20
2023-04-20T22:43:05.914Z,7.00
2023-04-20T22:53:13.671Z,6.90
2023-04-20T23:03:19.616Z,8.10
2023-04-20T23:13:26.515Z,8.50
2023-04-20T23:23:32.329Z,7.50
2023-04-20T23:33:38.183Z,7.30
2023-04-20T23:43:44.299Z,8.20
2023-04-20T23:53:50.827Z,8.30
